Surface observations / UK / EGMC

Quebec | Canada | USA | France | UK | Europe | Elsewhere

Display: Info & Location for EGMC | Help decoding METAR

EGMC SOUTHEND-ON-SEA -- UK
Raw surface observations for station EGMC
EGMC 220350Z 23016G26KT 9999 FEW009 BKN012 12/09 Q1018=
EGMC 220250Z 23020KT 9999 SCT012 BKN017 12/09 Q1018=
EGMC 220150Z 24020G30KT 9999 BKN014 12/09 Q1019=
EGMC 220050Z 23020KT 9999 BKN016 12/09 Q1019=
EGMC 212350Z 23016KT 9999 BKN019 11/08 Q1020=
EGMC 212320Z 23017KT 9999 SCT018 11/08 Q1020=
EGMC 212250Z 24018KT 9999 BKN017 11/08 Q1020=
EGMC 212220Z 24017G27KT 9999 SCT016 BKN020 11/08 Q1020=
EGMC 212150Z 24018KT 9999 SCT015 BKN018 11/08 Q1021=
EGMC 212120Z 23021KT 9999 BKN016 11/08 Q1021=
EGMC 212050Z 23019KT 9999 BKN016 11/08 Q1021=
EGMC 212020Z 24018KT 9999 BKN016 11/08 Q1022=
EGMC 211950Z 23015KT 9999 BKN017 11/07 Q1022=
EGMC 211920Z 23016KT 9999 BKN019 10/07 Q1022=
EGMC 211850Z 23017KT 9999 BKN019 10/06 Q1022=
EGMC 211820Z 23015KT 9999 BKN021 10/06 Q1022=
EGMC 211750Z 23016KT 9999 FEW025 09/05 Q1022=
EGMC 211720Z 23014KT 9999 BKN024 10/05 Q1023=
EGMC 211650Z 24016G26KT 9999 BKN024 10/05 Q1023=
EGMC 211620Z 24018G28KT 9999 BKN023 10/05 Q1023=
EGMC 211550Z 24019G29KT 9999 BKN023 10/05 Q1023=
EGMC 211520Z 24018KT 9999 BKN023 10/05 Q1024=
EGMC 211450Z 24018KT 9999 BKN023 10/05 Q1024=
EGMC 211420Z 24019KT 9999 BKN023 10/04 Q1024=
EGMC 211350Z 25016G26KT 9999 BKN026 10/05 Q1024=
EGMC 211320Z 24017G27KT 9999 BKN023 10/05 Q1025=
EGMC 211250Z 24017KT 9999 BKN025 10/05 Q1025=
EGMC 211220Z 24011KT 9999 BKN026 10/04 Q1026=
EGMC 211150Z 24013G23KT 9999 FEW026 BKN034 09/04 Q1026=
EGMC 211120Z 23013KT 9999 FEW023 BKN033 10/05 Q1027=
EGMC 211050Z 22012KT 9999 FEW016 BKN030 09/05 Q1027=
EGMC 211020Z 22013KT 9999 FEW012 BKN021 08/05 Q1027=
EGMC 210950Z 22013KT 9999 FEW012 BKN018 08/05 Q1028=
EGMC 210920Z 22012KT 9999 FEW009 BKN020 07/05 Q1028=
EGMC 210850Z 22011KT 9999 -DZ FEW009 BKN028 07/05 Q1028=
EGMC 210820Z 23010KT 9999 FEW006 SCT010 BKN020 07/04 Q1028=
EGMC 210750Z 23010KT 9999 -DZ FEW010 BKN015 06/04 Q1028=
EGMC 210720Z 23010KT 9999 BKN015 07/05 Q1028=
EGMC 210650Z 22011KT 9999 BKN010 06/04 Q1028=
EGMC 210620Z 22008KT 9999 FEW008 BKN020 06/04 Q1028=
EGMC 210550Z 22007KT 9999 FEW018 BKN030 06/04 Q1029=
EGMC 210450Z 23008KT 9999 BKN038 05/03 Q1029=